Time;durP1;ratioP1;P1;durP2;ratioP2;P2;SDS_P1;SDS_P2;PMS_P1;PMS_P2;Temp;Humidity;BMP_temperature;BMP_pressure;BME280_temperature;BME280_humidity;BME280_pressure;Samples;Min_cycle;Max_cycle;Signal;HPM_P1;HPM_P2
2022/11/06 00:01:41;;;;;;;1.70;1.30;;;;;;;-141.59;100.00;61776.25;5083734;28;20196;-83
2022/11/06 00:04:08;;;;;;;1.27;1.17;;;;;;;-141.59;100.00;61776.25;5085711;28;20225;-83
2022/11/06 00:06:49;;;;;;;1.73;0.90;;;;;;;-141.59;100.00;61776.25;5080313;28;20197;-87
2022/11/06 00:09:18;;;;;;;0.90;0.90;;;;;;;-141.59;100.00;61776.25;5074508;28;20207;-85
2022/11/06 00:11:46;;;;;;;1.50;1.23;;;;;;;-141.59;100.00;61776.25;5081228;28;20205;-86
2022/11/06 00:14:15;;;;;;;2.50;2.03;;;;;;;-141.59;100.00;61776.25;5081684;28;20223;-88
2022/11/06 00:16:44;;;;;;;2.30;1.80;;;;;;;-141.59;100.00;61776.25;5080737;28;20221;-88
2022/11/06 00:19:12;;;;;;;3.73;2.57;;;;;;;-141.59;100.00;61776.25;5084531;28;20229;-88
2022/11/06 00:21:40;;;;;;;1.67;1.30;;;;;;;-141.59;100.00;61776.25;5079024;28;20199;-90
2022/11/06 00:24:09;;;;;;;2.33;1.30;;;;;;;-141.59;100.00;61776.25;5081801;28;20258;-89
2022/11/06 00:26:39;;;;;;;1.50;1.40;;;;;;;-141.59;100.00;61776.25;5084534;28;20240;-91
2022/11/06 00:29:07;;;;;;;1.30;1.20;;;;;;;-141.59;100.00;61776.25;5081764;28;20216;-88
2022/11/06 00:31:37;;;;;;;1.50;1.23;;;;;;;-141.59;100.00;61776.25;5083084;28;20209;-90
2022/11/06 00:34:07;;;;;;;1.53;1.37;;;;;;;-141.59;100.00;61776.25;5085882;28;20231;-86
2022/11/06 00:36:35;;;;;;;2.20;1.20;;;;;;;-141.59;100.00;61776.25;5089682;28;20255;-86
2022/11/06 00:39:02;;;;;;;3.50;2.40;;;;;;;-141.59;100.00;61776.25;5081267;28;20201;-87
2022/11/06 00:41:29;;;;;;;3.77;2.30;;;;;;;-141.59;100.00;61776.25;5075784;28;20214;-85
2022/11/06 00:43:58;;;;;;;4.07;2.30;;;;;;;-141.59;100.00;61776.25;5077135;28;20221;-87
2022/11/06 00:46:27;;;;;;;3.93;1.80;;;;;;;-141.59;100.00;61776.25;5077599;28;20207;-86
2022/11/06 00:48:55;;;;;;;2.97;1.47;;;;;;;-141.59;100.00;61776.25;5081162;28;20211;-86
2022/11/06 00:51:25;;;;;;;2.43;1.43;;;;;;;-141.59;100.00;61776.25;5085540;28;20208;-86
2022/11/06 00:53:54;;;;;;;1.67;1.37;;;;;;;-141.59;100.00;61776.25;5085233;28;20201;-85
2022/11/06 00:56:22;;;;;;;3.50;2.10;;;;;;;-141.59;100.00;61776.25;5081775;28;20270;-87
2022/11/06 00:58:50;;;;;;;3.07;2.10;;;;;;;-141.59;100.00;61776.25;5081831;28;20247;-87
2022/11/06 01:01:19;;;;;;;2.97;1.97;;;;;;;-141.59;100.00;61776.25;5077301;28;20302;-87
2022/11/06 01:03:48;;;;;;;3.20;2.17;;;;;;;-141.59;100.00;61776.25;5081660;28;20209;-87
2022/11/06 01:06:20;;;;;;;2.43;1.60;;;;;;;-141.59;100.00;61776.25;5100079;28;20201;-86
2022/11/06 01:08:48;;;;;;;1.37;1.27;;;;;;;-141.59;100.00;61776.25;5074723;28;20233;-87
2022/11/06 01:11:17;;;;;;;1.40;1.10;;;;;;;-141.59;100.00;61776.25;5084745;28;20193;-85
2022/11/06 01:13:45;;;;;;;1.00;0.90;;;;;;;-141.59;100.00;61776.25;5085794;28;20204;-86
2022/11/06 01:16:14;;;;;;;1.10;1.00;;;;;;;-141.59;100.00;61776.25;5075367;28;20208;-85
2022/11/06 01:18:43;;;;;;;0.90;0.90;;;;;;;-141.59;100.00;61776.25;5082556;28;20231;-84
2022/11/06 01:21:12;;;;;;;1.60;1.23;;;;;;;-141.59;100.00;61776.25;5086946;28;20209;-84
2022/11/06 01:23:41;;;;;;;3.53;2.50;;;;;;;-141.59;100.00;61776.25;5083635;28;20201;-83
2022/11/06 01:26:10;;;;;;;2.20;1.97;;;;;;;-141.59;100.00;61776.25;5083765;28;20204;-83
2022/11/06 01:28:38;;;;;;;2.80;1.67;;;;;;;-141.59;100.00;61776.25;5086201;28;20212;-83
2022/11/06 01:31:06;;;;;;;1.97;1.77;;;;;;;-141.59;100.00;61776.25;5084388;28;20193;-85
2022/11/06 01:33:33;;;;;;;2.13;1.70;;;;;;;-141.59;100.00;61776.25;5081326;28;20209;-84
2022/11/06 01:36:00;;;;;;;1.87;1.40;;;;;;;-141.59;100.00;61776.25;5074661;28;20228;-85
2022/11/06 01:38:27;;;;;;;1.30;1.20;;;;;;;-141.59;100.00;61776.25;5089015;28;20259;-86
2022/11/06 01:40:57;;;;;;;0.90;0.90;;;;;;;-141.59;100.00;61776.25;5086756;28;20205;-86
2022/11/06 01:43:45;;;;;;;1.10;1.00;;;;;;;-141.59;100.00;61776.25;5086886;28;20208;-86
2022/11/06 01:46:13;;;;;;;0.90;0.90;;;;;;;-141.59;100.00;61776.25;5086089;28;20205;-85
2022/11/06 01:48:43;;;;;;;2.10;1.10;;;;;;;-141.59;100.00;61776.25;5084246;28;20213;-85
2022/11/06 01:51:11;;;;;;;0.93;0.90;;;;;;;-141.59;100.00;61776.25;5080521;28;20213;-84
2022/11/06 01:53:39;;;;;;;1.80;0.90;;;;;;;-141.59;100.00;61776.25;5085840;28;20218;-85
2022/11/06 01:56:11;;;;;;;0.83;0.83;;;;;;;-141.59;100.00;61776.25;5085163;28;20193;-87
2022/11/06 01:58:41;;;;;;;1.90;0.93;;;;;;;-141.59;100.00;61776.25;5083417;28;20205;-85
2022/11/06 02:01:13;;;;;;;1.07;0.90;;;;;;;-141.59;100.00;61776.25;5078513;28;20200;-86
2022/11/06 02:03:46;;;;;;;0.80;0.80;;;;;;;-141.59;100.00;61776.25;5082377;28;20201;-86
2022/11/06 02:06:13;;;;;;;1.13;0.80;;;;;;;-141.59;100.00;61776.25;5085485;28;20201;-86
2022/11/06 02:08:42;;;;;;;2.00;0.80;;;;;;;-141.59;100.00;61776.25;5087093;28;20251;-86
2022/11/06 02:11:11;;;;;;;0.70;0.70;;;;;;;-141.59;100.00;61776.25;5083812;28;20241;-86
2022/11/06 02:13:49;;;;;;;0.80;0.80;;;;;;;-141.59;100.00;61776.25;5082141;28;20204;-86
2022/11/06 02:16:33;;;;;;;0.90;0.90;;;;;;;-141.59;100.00;61776.25;5082965;28;20287;-85
2022/11/06 02:19:24;;;;;;;0.90;0.90;;;;;;;-141.59;100.00;61776.25;5087738;28;20305;-84
2022/11/06 02:22:15;;;;;;;1.00;1.00;;;;;;;-141.59;100.00;61776.25;5075429;28;20220;-84
2022/11/06 02:25:06;;;;;;;1.27;1.03;;;;;;;-141.59;100.00;61776.25;5084474;28;20215;-84
2022/11/06 02:27:35;;;;;;;0.80;0.80;;;;;;;-141.59;100.00;61776.25;5085582;28;20209;-84
2022/11/06 02:30:08;;;;;;;1.27;1.03;;;;;;;-141.59;100.00;61776.25;5079517;28;20220;-84
2022/11/06 02:32:40;;;;;;;0.83;0.83;;;;;;;-141.59;100.00;61776.25;5076942;28;20193;-83
2022/11/06 02:35:18;;;;;;;0.97;0.87;;;;;;;-141.59;100.00;61776.25;5089655;28;20324;-83
2022/11/06 02:37:48;;;;;;;0.80;0.80;;;;;;;-141.59;100.00;61776.25;5081985;28;20236;-84
2022/11/06 02:40:17;;;;;;;1.10;1.00;;;;;;;-141.59;100.00;61776.25;5081499;28;20202;-84
2022/11/06 02:42:51;;;;;;;4.00;0.90;;;;;;;-141.59;100.00;61776.25;5080888;28;20285;-88
2022/11/06 02:45:20;;;;;;;0.70;0.70;;;;;;;-141.59;100.00;61776.25;5083381;28;20233;-88
2022/11/06 02:47:53;;;;;;;0.63;0.63;;;;;;;-141.59;100.00;61776.25;5085080;28;20210;-88
2022/11/06 02:50:26;;;;;;;1.77;0.90;;;;;;;-141.59;100.00;61776.25;5083466;28;20250;-87
2022/11/06 02:52:57;;;;;;;0.80;0.80;;;;;;;-141.59;100.00;61776.25;5086801;28;20201;-88
2022/11/06 02:55:30;;;;;;;0.63;0.63;;;;;;;-141.59;100.00;61776.25;5079718;28;20237;-88
2022/11/06 02:58:02;;;;;;;0.97;0.90;;;;;;;-141.59;100.00;61776.25;5081742;28;20201;-87
2022/11/06 03:00:30;;;;;;;2.80;1.10;;;;;;;-141.59;100.00;61776.25;5079965;28;20262;-87
2022/11/06 03:03:01;;;;;;;2.93;1.00;;;;;;;-141.59;100.00;61776.25;5087806;28;20209;-87
2022/11/06 03:05:32;;;;;;;0.80;0.80;;;;;;;-141.59;100.00;61776.25;5086158;28;20270;-87
2022/11/06 03:08:05;;;;;;;0.80;0.80;;;;;;;-141.59;100.00;61776.25;5081859;28;20232;-85
2022/11/06 03:10:38;;;;;;;1.00;1.00;;;;;;;-141.59;100.00;61776.25;5081902;28;20239;-84
2022/11/06 03:13:16;;;;;;;0.90;0.90;;;;;;;-141.59;100.00;61776.25;5081822;28;20201;-85
2022/11/06 03:15:51;;;;;;;0.70;0.70;;;;;;;-141.59;100.00;61776.25;5082773;28;20228;-85
2022/11/06 03:18:28;;;;;;;1.00;0.90;;;;;;;-141.59;100.00;61776.25;5082089;28;20204;-87
2022/11/06 03:21:00;;;;;;;0.70;0.70;;;;;;;-141.59;100.00;61776.25;5075964;28;20251;-86
2022/11/06 03:23:35;;;;;;;0.80;0.80;;;;;;;-141.59;100.00;61776.25;5086113;28;20258;-86
2022/11/06 03:26:12;;;;;;;0.70;0.70;;;;;;;-141.59;100.00;61776.25;5085457;28;20232;-86
2022/11/06 03:28:49;;;;;;;0.80;0.77;;;;;;;-141.59;100.00;61776.25;5086558;28;20204;-87
2022/11/06 03:31:26;;;;;;;0.90;0.80;;;;;;;-141.59;100.00;61776.25;5084255;28;20248;-87
2022/11/06 03:33:57;;;;;;;2.30;1.00;;;;;;;-141.59;100.00;61776.25;5092406;28;20229;-87
2022/11/06 03:36:29;;;;;;;1.07;0.97;;;;;;;-141.59;100.00;61776.25;5084914;28;20313;-88
2022/11/06 03:39:01;;;;;;;1.00;0.90;;;;;;;-141.59;100.00;61776.25;5083571;28;20213;-88
2022/11/06 03:41:35;;;;;;;0.80;0.80;;;;;;;-141.59;100.00;61776.25;5083327;28;20211;-89
2022/11/06 03:44:07;;;;;;;1.13;1.00;;;;;;;-141.59;100.00;61776.25;5094323;28;20208;-89
2022/11/06 03:46:38;;;;;;;4.67;1.00;;;;;;;-141.59;100.00;61776.25;5079410;28;20225;-87
2022/11/06 03:49:12;;;;;;;1.00;0.90;;;;;;;-141.59;100.00;61776.25;5083743;28;20221;-86
2022/11/06 03:51:44;;;;;;;2.17;0.90;;;;;;;-141.59;100.00;61776.25;5082606;28;20205;-87
2022/11/06 03:54:18;;;;;;;1.80;0.90;;;;;;;-141.59;100.00;61776.25;5082600;28;20215;-88
2022/11/06 03:56:51;;;;;;;1.27;1.00;;;;;;;-141.59;100.00;61776.25;5082617;28;20228;-86
2022/11/06 03:59:24;;;;;;;2.83;1.23;;;;;;;-141.59;100.00;61776.25;5084692;28;20292;-88
2022/11/06 04:01:55;;;;;;;0.93;0.90;;;;;;;-141.59;100.00;61776.25;5073886;28;20244;-85
2022/11/06 04:04:28;;;;;;;1.43;1.03;;;;;;;-141.59;100.00;61776.25;5083745;28;20204;-86
2022/11/06 04:06:59;;;;;;;1.83;1.07;;;;;;;-141.59;100.00;61776.25;5076395;28;20204;-85
2022/11/06 04:15:10;;;;;;;1.67;1.20;;;;;;;-141.59;100.00;61776.25;5085211;28;20213;-86
2022/11/06 04:17:39;;;;;;;1.20;0.80;;;;;;;-141.59;100.00;61776.25;5089718;28;20204;-87
2022/11/06 04:20:11;;;;;;;0.93;0.90;;;;;;;-141.59;100.00;61776.25;5075877;28;20221;-88
2022/11/06 04:22:49;;;;;;;1.47;0.90;;;;;;;-141.59;100.00;61776.25;5095334;28;20267;-87
2022/11/06 04:28:27;;;;;;;2.10;1.40;;;;;;;-141.59;100.00;61776.25;5079281;28;20216;-87
2022/11/06 04:31:06;;;;;;;2.17;1.60;;;;;;;-141.59;100.00;61776.25;5077499;28;20211;-87
2022/11/06 04:33:44;;;;;;;4.03;2.67;;;;;;;-141.59;100.00;61776.25;5077732;28;20205;-87
2022/11/06 04:36:21;;;;;;;2.27;2.00;;;;;;;-141.59;100.00;61776.25;5087102;28;20228;-85
2022/11/06 04:38:55;;;;;;;8.77;6.60;;;;;;;-141.59;100.00;61776.25;5081345;28;20243;-86
2022/11/06 04:41:33;;;;;;;9.07;6.43;;;;;;;-141.59;100.00;61776.25;5075448;28;20221;-85
2022/11/06 04:44:04;;;;;;;5.33;3.73;;;;;;;-141.59;100.00;61776.25;5079859;28;20330;-85
2022/11/06 04:46:37;;;;;;;2.23;1.80;;;;;;;-141.59;100.00;61776.25;5084687;28;20223;-85
2022/11/06 04:49:07;;;;;;;1.57;1.40;;;;;;;-141.59;100.00;61776.25;5076321;28;20200;-86
2022/11/06 04:51:37;;;;;;;5.53;1.20;;;;;;;-141.59;100.00;61776.25;5087629;28;20208;-87
2022/11/06 04:54:09;;;;;;;1.70;1.50;;;;;;;-141.59;100.00;61776.25;5088960;28;20209;-85
2022/11/06 04:56:40;;;;;;;2.20;2.00;;;;;;;-141.59;100.00;61776.25;5083841;28;20228;-91
2022/11/06 04:59:14;;;;;;;1.80;1.47;;;;;;;-141.59;100.00;61776.25;5088286;28;20212;-92
2022/11/06 05:01:43;;;;;;;3.07;1.53;;;;;;;-141.59;100.00;61776.25;5084616;28;20211;-92
2022/11/06 05:04:13;;;;;;;1.43;1.33;;;;;;;-141.59;100.00;61776.25;5088273;28;20205;-91
2022/11/06 05:06:41;;;;;;;1.10;1.00;;;;;;;-141.59;100.00;61776.25;5084496;28;20303;-91
2022/11/06 05:09:08;;;;;;;2.40;1.00;;;;;;;-141.59;100.00;61776.25;5090397;28;20204;-91
2022/11/06 05:11:37;;;;;;;1.00;0.90;;;;;;;-141.59;100.00;61776.25;5084426;28;20288;-91
2022/11/06 05:14:05;;;;;;;0.80;0.80;;;;;;;-141.59;100.00;61776.25;5089313;28;20197;-91
2022/11/06 05:16:32;;;;;;;1.43;0.80;;;;;;;-141.59;100.00;61776.25;5086996;28;20215;-91
2022/11/06 05:19:07;;;;;;;1.07;0.90;;;;;;;-141.59;100.00;61776.25;5085131;28;20229;-90
2022/11/06 05:24:19;;;;;;;1.90;1.30;;;;;;;-141.59;100.00;61776.25;5083279;28;20198;-87
2022/11/06 05:26:47;;;;;;;1.60;1.50;;;;;;;-141.59;100.00;61776.25;5089931;28;20212;-87
2022/11/06 05:29:15;;;;;;;3.20;1.10;;;;;;;-141.59;100.00;61776.25;5087581;28;20197;-87
2022/11/06 05:31:42;;;;;;;1.20;0.87;;;;;;;-141.59;100.00;61776.25;5084325;28;20298;-86
2022/11/06 05:34:11;;;;;;;1.20;0.90;;;;;;;-141.59;100.00;61776.25;5082974;28;20213;-88
2022/11/06 05:36:38;;;;;;;1.00;1.00;;;;;;;-141.59;100.00;61776.25;5084870;28;20229;-88
2022/11/06 05:39:08;;;;;;;2.20;1.50;;;;;;;-141.59;100.00;61776.25;5084625;28;20201;-89
2022/11/06 05:41:35;;;;;;;0.70;0.70;;;;;;;-141.59;100.00;61776.25;5088340;28;20212;-86
2022/11/06 05:44:02;;;;;;;0.73;0.70;;;;;;;-141.59;100.00;61776.25;5085616;28;20215;-87
2022/11/06 05:46:30;;;;;;;0.70;0.70;;;;;;;-141.59;100.00;61776.25;5079185;28;20214;-87
2022/11/06 05:48:57;;;;;;;1.00;0.83;;;;;;;-141.59;100.00;61776.25;5073929;28;20197;-88
2022/11/06 05:51:26;;;;;;;0.83;0.80;;;;;;;-141.59;100.00;61776.25;5087924;28;20288;-90
2022/11/06 05:53:55;;;;;;;0.90;0.90;;;;;;;-141.59;100.00;61776.25;5085934;28;20198;-89
2022/11/06 05:56:23;;;;;;;0.73;0.70;;;;;;;-141.59;100.00;61776.25;5082802;28;20201;-87
2022/11/06 05:58:50;;;;;;;1.17;0.77;;;;;;;-141.59;100.00;61776.25;5078225;28;20269;-88
2022/11/06 06:01:17;;;;;;;0.70;0.70;;;;;;;-141.59;100.00;61776.25;5085104;28;20209;-86
2022/11/06 06:03:44;;;;;;;1.07;0.70;;;;;;;-141.59;100.00;61776.25;5080237;28;20288;-87
2022/11/06 06:06:11;;;;;;;0.80;0.80;;;;;;;-141.59;100.00;61776.25;5081316;28;20290;-88
2022/11/06 06:08:40;;;;;;;1.00;0.90;;;;;;;-141.59;100.00;61776.25;5086125;28;20201;-88
2022/11/06 06:11:08;;;;;;;2.83;0.90;;;;;;;-141.59;100.00;61776.25;5078307;28;20233;-86
2022/11/06 06:13:36;;;;;;;0.60;0.60;;;;;;;-141.59;100.00;61776.25;5079344;28;20276;-85
2022/11/06 06:16:08;;;;;;;0.80;0.80;;;;;;;-141.59;100.00;61776.25;5085110;28;20204;-88
2022/11/06 06:18:36;;;;;;;2.43;1.00;;;;;;;-141.59;100.00;61776.25;5085459;28;20225;-88
2022/11/06 06:21:03;;;;;;;1.20;1.10;;;;;;;-141.59;100.00;61776.25;5086459;28;20205;-87
2022/11/06 06:23:30;;;;;;;10.53;6.40;;;;;;;-141.59;100.00;61776.25;5081080;28;20202;-87
2022/11/06 06:25:58;;;;;;;2.67;1.80;;;;;;;-141.59;100.00;61776.25;5081283;28;20213;-87
2022/11/06 06:28:26;;;;;;;1.37;1.00;;;;;;;-141.59;100.00;61776.25;5103234;28;20201;-87
2022/11/06 06:30:53;;;;;;;4.63;2.67;;;;;;;-141.59;100.00;61776.25;5088864;28;20205;-87
2022/11/06 06:33:20;;;;;;;1.73;1.20;;;;;;;-141.59;100.00;61776.25;5083562;28;20213;-82
2022/11/06 06:35:47;;;;;;;0.80;0.80;;;;;;;-141.59;100.00;61776.25;5081508;28;20233;-84
2022/11/06 06:38:15;;;;;;;1.80;1.20;;;;;;;-141.59;100.00;61776.25;5074842;28;20244;-84
2022/11/06 06:40:42;;;;;;;1.00;0.80;;;;;;;-141.59;100.00;61776.25;5077514;28;20197;-85
2022/11/06 06:43:10;;;;;;;2.13;0.90;;;;;;;-141.59;100.00;61776.25;5063866;28;20208;-85
2022/11/06 06:45:37;;;;;;;0.93;0.80;;;;;;;-141.59;100.00;61776.25;5078675;28;20229;-84
2022/11/06 06:48:08;;;;;;;2.07;1.70;;;;;;;-141.59;100.00;61776.25;5083080;28;20229;-86
2022/11/06 06:50:36;;;;;;;2.50;2.30;;;;;;;-141.59;100.00;61776.25;5077053;28;20213;-85
2022/11/06 06:53:04;;;;;;;1.77;1.33;;;;;;;-141.59;100.00;61776.25;5073672;28;20210;-87
2022/11/06 06:55:32;;;;;;;1.30;1.20;;;;;;;-141.59;100.00;61776.25;5075807;28;20206;-85
2022/11/06 06:58:00;;;;;;;3.30;1.50;;;;;;;-141.59;100.00;61776.25;5083616;28;20287;-85
2022/11/06 07:00:28;;;;;;;1.30;1.20;;;;;;;-141.59;100.00;61776.25;5082246;28;20252;-85
2022/11/06 07:02:55;;;;;;;2.10;1.40;;;;;;;-141.59;100.00;61776.25;5070471;28;20204;-84
2022/11/06 07:05:24;;;;;;;1.27;1.10;;;;;;;-141.59;100.00;61776.25;5077953;28;20217;-84
2022/11/06 07:07:53;;;;;;;1.50;1.40;;;;;;;-141.59;100.00;61776.25;5081197;28;20211;-85
2022/11/06 07:10:20;;;;;;;2.57;1.90;;;;;;;-141.59;100.00;61776.25;5075870;28;20205;-85
2022/11/06 07:12:47;;;;;;;4.43;2.00;;;;;;;-141.59;100.00;61776.25;5074844;28;20201;-85
2022/11/06 07:15:15;;;;;;;2.93;1.90;;;;;;;-141.59;100.00;61776.25;5077885;28;20193;-85
2022/11/06 07:17:43;;;;;;;2.77;1.90;;;;;;;-141.59;100.00;61776.25;5074519;28;20288;-86
2022/11/06 07:20:11;;;;;;;5.40;1.80;;;;;;;-141.59;100.00;61776.25;5074253;28;20282;-86
2022/11/06 07:22:38;;;;;;;1.90;1.70;;;;;;;-141.59;100.00;61776.25;5076592;28;20203;-85
2022/11/06 07:25:06;;;;;;;2.47;1.70;;;;;;;-141.59;100.00;61776.25;5080967;28;20247;-86
2022/11/06 07:27:33;;;;;;;2.40;1.73;;;;;;;-141.59;100.00;61776.25;5080108;28;20217;-85
2022/11/06 07:30:04;;;;;;;4.03;2.50;;;;;;;-141.59;100.00;61776.25;5077418;28;20201;-86
2022/11/06 07:32:33;;;;;;;3.13;2.30;;;;;;;-141.59;100.00;61776.25;5076581;28;20215;-87
2022/11/06 07:35:01;;;;;;;2.47;1.80;;;;;;;-141.59;100.00;61776.25;5093775;28;20201;-86
2022/11/06 07:37:29;;;;;;;4.33;1.40;;;;;;;-141.59;100.00;61776.25;5072472;28;20672;-87
2022/11/06 07:39:56;;;;;;;1.93;1.53;;;;;;;-141.59;100.00;61776.25;5073342;28;20270;-86
2022/11/06 07:42:24;;;;;;;1.70;1.60;;;;;;;-141.59;100.00;61776.25;5074206;28;20370;-84
2022/11/06 07:45:04;;;;;;;2.40;1.63;;;;;;;-141.59;100.00;61776.25;5080643;28;20189;-83
2022/11/06 07:47:32;;;;;;;3.47;2.13;;;;;;;-141.59;100.00;61776.25;5073944;28;20229;-86
2022/11/06 07:49:59;;;;;;;2.27;1.73;;;;;;;-141.59;100.00;61776.25;5092546;28;20197;-84
2022/11/06 07:52:27;;;;;;;2.40;2.10;;;;;;;-141.59;100.00;61776.25;5073531;28;20205;-83
2022/11/06 07:54:54;;;;;;;2.73;1.90;;;;;;;-141.59;100.00;61776.25;5074942;28;20208;-84
2022/11/06 07:57:24;;;;;;;4.07;2.13;;;;;;;-141.59;100.00;61776.25;5080207;28;20258;-84
2022/11/06 07:59:51;;;;;;;2.40;2.07;;;;;;;-141.59;100.00;61776.25;5076610;28;20205;-83
2022/11/06 08:02:19;;;;;;;4.57;2.60;;;;;;;-141.59;100.00;61776.25;5074419;28;20217;-83
2022/11/06 08:04:47;;;;;;;4.83;2.67;;;;;;;-141.59;100.00;61776.25;5076883;28;20205;-84
2022/11/06 08:07:27;;;;;;;3.57;2.77;;;;;;;-141.59;100.00;61776.25;5077879;28;20220;-84
2022/11/06 08:09:57;;;;;;;1.90;1.70;;;;;;;-141.59;100.00;61776.25;5079287;28;20216;-85
2022/11/06 08:12:24;;;;;;;2.60;1.87;;;;;;;-141.59;100.00;61776.25;5079701;28;20204;-85
2022/11/06 08:14:51;;;;;;;1.90;1.70;;;;;;;-141.59;100.00;61776.25;5082725;28;20208;-86
2022/11/06 08:17:22;;;;;;;2.03;1.83;;;;;;;-141.59;100.00;61776.25;5081595;28;20199;-84
2022/11/06 08:19:50;;;;;;;2.00;1.63;;;;;;;-141.59;100.00;61776.25;5092615;28;20232;-84
2022/11/06 08:22:17;;;;;;;2.50;1.70;;;;;;;-141.59;100.00;61776.25;5084670;28;20227;-84
2022/11/06 08:24:45;;;;;;;2.40;1.80;;;;;;;-141.59;100.00;61776.25;5081941;28;20193;-84
2022/11/06 08:27:16;;;;;;;2.13;1.80;;;;;;;-141.59;100.00;61776.25;5088241;28;20219;-84
2022/11/06 08:29:43;;;;;;;2.80;1.70;;;;;;;-141.59;100.00;61776.25;5087453;28;20197;-84
2022/11/06 08:32:11;;;;;;;2.50;2.00;;;;;;;-141.59;100.00;61776.25;5086158;28;20212;-84
2022/11/06 08:34:41;;;;;;;2.50;1.80;;;;;;;-141.59;100.00;61776.25;5088521;28;20258;-84
2022/11/06 08:37:09;;;;;;;3.07;1.50;;;;;;;-141.59;100.00;61776.25;5074976;28;20236;-84
2022/11/06 08:39:36;;;;;;;1.50;1.40;;;;;;;-141.59;100.00;61776.25;5083378;28;20205;-84
2022/11/06 08:42:05;;;;;;;5.97;1.80;;;;;;;-141.59;100.00;61776.25;5104710;28;20199;-84
2022/11/06 08:44:35;;;;;;;1.93;1.50;;;;;;;-141.59;100.00;61776.25;5088615;28;20250;-82
2022/11/06 08:47:06;;;;;;;3.40;1.73;;;;;;;-141.59;100.00;61776.25;5083848;28;20217;-83
2022/11/06 08:49:33;;;;;;;2.53;1.80;;;;;;;-141.59;100.00;61776.25;5090693;28;20225;-83
2022/11/06 08:52:00;;;;;;;2.77;1.90;;;;;;;-141.59;100.00;61776.25;5089657;28;20201;-82
2022/11/06 08:54:30;;;;;;;2.57;1.70;;;;;;;-141.59;100.00;61776.25;5097121;28;20459;-83
2022/11/06 08:56:59;;;;;;;3.80;1.80;;;;;;;-141.59;100.00;61776.25;5099070;28;20212;-83
2022/11/06 08:59:26;;;;;;;3.57;1.70;;;;;;;-141.59;100.00;61776.25;5085546;28;20203;-83
2022/11/06 09:01:57;;;;;;;7.33;1.47;;;;;;;-141.59;100.00;61776.25;5080284;28;20197;-83
2022/11/06 09:04:24;;;;;;;2.03;1.33;;;;;;;-141.59;100.00;61776.25;5082184;28;20229;-82
2022/11/06 09:06:51;;;;;;;1.97;1.57;;;;;;;-141.59;100.00;61776.25;5091085;28;20239;-81
2022/11/06 09:09:18;;;;;;;5.47;1.70;;;;;;;-141.59;100.00;61776.25;5083702;28;20209;-82
2022/11/06 09:11:45;;;;;;;2.37;2.00;;;;;;;-141.59;100.00;61776.25;5087560;28;20208;-81
2022/11/06 09:14:12;;;;;;;1.60;1.50;;;;;;;-141.59;100.00;61776.25;5085114;28;20219;-81
2022/11/06 09:16:39;;;;;;;2.63;1.87;;;;;;;-141.59;100.00;61776.25;5087929;28;20291;-81
2022/11/06 09:19:07;;;;;;;2.37;2.00;;;;;;;-141.59;100.00;61776.25;5089387;28;20210;-82
2022/11/06 09:21:35;;;;;;;3.27;1.73;;;;;;;-141.59;100.00;61776.25;5090198;28;20207;-84
2022/11/06 09:24:03;;;;;;;3.30;1.67;;;;;;;-141.59;100.00;61776.25;5081272;28;20217;-84
2022/11/06 09:26:30;;;;;;;2.30;1.60;;;;;;;-141.59;100.00;61776.25;5088928;28;20225;-85
2022/11/06 09:28:57;;;;;;;2.40;1.73;;;;;;;-141.59;100.00;61776.25;5080770;28;20212;-86
2022/11/06 09:31:24;;;;;;;1.80;1.50;;;;;;;-141.59;100.00;61776.25;5083556;28;20208;-86
2022/11/06 09:33:53;;;;;;;2.67;1.50;;;;;;;-141.59;100.00;61776.25;5089916;28;20262;-84
2022/11/06 09:36:22;;;;;;;1.83;1.20;;;;;;;-141.59;100.00;61776.25;5091507;28;20352;-85
2022/11/06 09:38:49;;;;;;;2.10;1.57;;;;;;;-141.59;100.00;61776.25;5086421;28;20234;-85
2022/11/06 09:41:21;;;;;;;1.10;1.00;;;;;;;-141.59;100.00;61776.25;5087430;28;20753;-84
2022/11/06 09:44:07;;;;;;;1.47;1.27;;;;;;;-141.59;100.00;61776.25;5087146;28;20292;-85
2022/11/06 09:46:41;;;;;;;1.10;1.00;;;;;;;-141.59;100.00;61776.25;5084524;28;20252;-84
2022/11/06 09:49:17;;;;;;;0.80;0.80;;;;;;;-141.59;100.00;61776.25;5083282;28;20201;-84
2022/11/06 09:51:51;;;;;;;0.93;0.90;;;;;;;-141.59;100.00;61776.25;5080955;28;20201;-84
2022/11/06 09:54:22;;;;;;;1.33;0.97;;;;;;;-141.59;100.00;61776.25;5085723;28;20226;-85
2022/11/06 09:57:00;;;;;;;2.47;1.20;;;;;;;-141.59;100.00;61776.25;5088570;28;20208;-84
2022/11/06 09:59:28;;;;;;;2.23;0.90;;;;;;;-141.59;100.00;61776.25;5083341;28;20293;-84
2022/11/06 10:01:57;;;;;;;0.80;0.80;;;;;;;-141.59;100.00;61776.25;5083353;28;20221;-85
2022/11/06 10:04:36;;;;;;;0.80;0.80;;;;;;;-141.59;100.00;61776.25;5076166;28;20205;-85
2022/11/06 10:07:09;;;;;;;0.80;0.80;;;;;;;-141.59;100.00;61776.25;5084721;28;20235;-84
2022/11/06 10:09:36;;;;;;;1.40;1.20;;;;;;;-141.59;100.00;61776.25;5091433;28;20204;-85
2022/11/06 10:12:16;;;;;;;1.33;1.17;;;;;;;-141.59;100.00;61776.25;5086862;28;20193;-84
2022/11/06 10:14:57;;;;;;;0.90;0.90;;;;;;;-141.59;100.00;61776.25;5084896;28;20200;-85
2022/11/06 10:17:41;;;;;;;0.97;0.80;;;;;;;-141.59;100.00;61776.25;5081031;28;20207;-86
2022/11/06 10:20:17;;;;;;;1.10;0.90;;;;;;;-141.59;100.00;61776.25;5083300;28;20294;-86
2022/11/06 10:22:57;;;;;;;4.30;1.00;;;;;;;-141.59;100.00;61776.25;5086194;28;20199;-87
2022/11/06 10:25:37;;;;;;;0.97;0.90;;;;;;;-141.59;100.00;61776.25;5085389;28;20278;-87
2022/11/06 10:28:15;;;;;;;0.80;0.80;;;;;;;-141.59;100.00;61776.25;5081072;28;20221;-87
2022/11/06 10:30:51;;;;;;;1.20;1.00;;;;;;;-141.59;100.00;61776.25;5081871;28;20237;-84
2022/11/06 10:33:29;;;;;;;2.87;1.90;;;;;;;-141.59;100.00;61776.25;5086479;28;20193;-85
2022/11/06 10:36:02;;;;;;;1.03;0.90;;;;;;;-141.59;100.00;61776.25;5082568;28;20237;-85
2022/11/06 10:38:35;;;;;;;1.27;1.10;;;;;;;-141.59;100.00;61776.25;5078554;28;20230;-84
2022/11/06 10:41:02;;;;;;;0.80;0.80;;;;;;;-141.59;100.00;61776.25;5075089;28;20389;-84
2022/11/06 10:43:33;;;;;;;0.87;0.87;;;;;;;-141.59;100.00;61776.25;5083955;28;20206;-84
2022/11/06 10:46:12;;;;;;;1.87;1.10;;;;;;;-141.59;100.00;61776.25;5081016;28;20296;-85
2022/11/06 10:48:43;;;;;;;0.80;0.80;;;;;;;-141.59;100.00;61776.25;5085464;28;20221;-84
2022/11/06 10:51:28;;;;;;;1.00;1.00;;;;;;;-141.59;100.00;61776.25;5083443;28;20205;-84
2022/11/06 10:54:10;;;;;;;1.10;1.00;;;;;;;-141.59;100.00;61776.25;5083605;28;20200;-85
2022/11/06 10:56:56;;;;;;;1.00;0.90;;;;;;;-141.59;100.00;61776.25;5077264;28;20208;-83
2022/11/06 10:59:23;;;;;;;0.90;0.90;;;;;;;-141.59;100.00;61776.25;5080946;28;20204;-82
2022/11/06 11:01:50;;;;;;;1.40;1.10;;;;;;;-141.59;100.00;61776.25;5082369;28;20204;-83
2022/11/06 11:04:17;;;;;;;1.10;1.00;;;;;;;-141.59;100.00;61776.25;5084121;28;20213;-79
2022/11/06 11:06:44;;;;;;;2.73;1.20;;;;;;;-141.59;100.00;61776.25;5091726;28;20197;-79
2022/11/06 11:09:30;;;;;;;1.40;1.30;;;;;;;-141.59;100.00;61776.25;5081026;28;20213;-79
2022/11/06 11:11:58;;;;;;;1.17;1.00;;;;;;;-141.59;100.00;61776.25;5080282;28;20213;-80
2022/11/06 11:14:27;;;;;;;1.20;1.00;;;;;;;-141.59;100.00;61776.25;5082347;28;20197;-80
2022/11/06 11:16:55;;;;;;;1.30;1.10;;;;;;;-141.59;100.00;61776.25;5081677;28;20279;-80
2022/11/06 11:19:26;;;;;;;1.20;1.10;;;;;;;-141.59;100.00;61776.25;5083727;28;20221;-84
2022/11/06 11:21:56;;;;;;;1.10;1.00;;;;;;;-141.59;100.00;61776.25;5100600;28;20204;-82
2022/11/06 11:24:24;;;;;;;2.30;1.17;;;;;;;-141.59;100.00;61776.25;5085168;28;20208;-82
2022/11/06 11:26:59;;;;;;;1.20;1.10;;;;;;;-141.59;100.00;61776.25;5083521;28;20205;-81
2022/11/06 11:29:30;;;;;;;0.90;0.90;;;;;;;-141.59;100.00;61776.25;5088942;28;20192;-81
2022/11/06 11:32:01;;;;;;;0.87;0.87;;;;;;;-141.59;100.00;61776.25;5080582;28;20210;-81
2022/11/06 11:34:31;;;;;;;0.90;0.90;;;;;;;-141.59;100.00;61776.25;5074854;28;20197;-81
2022/11/06 11:37:01;;;;;;;1.10;1.00;;;;;;;-141.59;100.00;61776.25;5083399;28;20238;-81